• Join FlightAware (Why Join?)
  • Login
  • US Flag 
09:45PM EDT


 

Airport Tracker/Info


-or-


 

Live Flight TrackerFlight Track Log ✈ SWA1031 ✈ 29-Apr-2013 ✈ KONT - KMDW

Flight Track Log - Related Links

Times and Time Zones

All times are in EDT time to prevent confusion due to time zone crossing. See the SWA1031 flight status page for this flight to view local times or setup timezone preferences in your user account.

Time Position Orientation Groundspeed Altitude Reporting Facility
EDT Latitude Longitude Course Direction KTS MPH feet Rate Location/Type
04:51PM 34.0942 -117.7611 299° West 231 266 6,500  Level Los Angeles Center
04:52PM 34.1439 -117.8300 311° West 265 305 9,300 3,000 Climbing Los Angeles Center
04:53PM 34.1978 -117.9058 311° West 293 337 12,700 2,700 Climbing Los Angeles Center
04:54PM 34.2939 -117.9086 359° North 355 409 15,000 2,280 Climbing Los Angeles Center
04:55PM 34.4001 -117.7999 59° Northeast  Level FlightAware Approximate
04:55PM 34.3494 -117.7992 58° Northeast 381 438 17,500  Level Los Angeles Center
04:56PM 34.4119 -117.6792 58° Northeast 397 457 19,600 1,680 Climbing Los Angeles Center
04:57PM 34.4678 -117.5656 59° Northeast 401 461 21,100 1,140 Climbing Los Angeles Center
04:58PM 34.5264 -117.4486 59° Northeast 409 471 22,000 1,080 Climbing Los Angeles Center
04:59PM 34.5867 -117.3306 58° Northeast 413 475 23,400 1,080 Climbing Los Angeles Center
05:00PM 34.6608 -117.2233 50° Northeast 420 483 24,300 720 Climbing Los Angeles Center
05:01PM 34.7514 -117.0953 49° Northeast 421 484 25,000 1,200 Climbing Los Angeles Center
05:02PM 34.8281 -116.9867 49° Northeast 427 491 26,900 1,740 Climbing Los Angeles Center
05:03PM 34.9061 -116.8736 50° Northeast 434 499 28,700 1,740 Climbing Los Angeles Center
05:05PM 34.9850 -116.7597 50° Northeast 439 505 30,500 1,740 Climbing Los Angeles Center
05:06PM 35.0642 -116.6469 49° Northeast 440 506 32,400 1,800 Climbing Los Angeles Center
05:07PM 35.1583 -116.5111 50° Northeast 438 504 34,300 1,740 Climbing Los Angeles Center
05:08PM 35.2350 -116.4006 50° Northeast 433 498 36,100 1,260 Climbing Los Angeles Center
05:09PM 35.3103 -116.2889 50° Northeast 427 491 37,000 420 Climbing Los Angeles Center
05:10PM 35.3869 -116.1794 49° Northeast 425 489 37,000  Level Los Angeles Center
05:11PM 35.4625 -116.0681 50° Northeast 425 489 37,000  Level Los Angeles Center
05:12PM 35.5547 -115.9364 49° Northeast 425 489 37,000  Level Los Angeles Center
05:13PM 35.6244 -115.8356 50° Northeast 425 489 37,000  Level Los Angeles Center
05:14PM 35.7144 -115.7031 50° Northeast 424 488 37,000  Level Los Angeles Center
05:15PM 35.7894 -115.5928 50° Northeast 422 486 37,000  Level Los Angeles Center
05:16PM 35.8639 -115.4822 50° Northeast 421 484 37,000  Level Los Angeles Center
05:17PM 35.9378 -115.3722 50° Northeast 420 483 37,000  Level Los Angeles Center
05:18PM 36.0122 -115.2614 50° Northeast 422 486 37,000  Level Los Angeles Center
05:19PM 36.0917 -115.1214 55° Northeast 420 483 37,000  Level Los Angeles Center
05:20PM 36.1336 -114.9844 69° East 426 490 37,000  Level Los Angeles Center
05:21PM 36.1764 -114.8472 69° East 427 491 37,000  Level Los Angeles Center
05:22PM 36.2169 -114.7122 70° East 424 488 37,000  Level Los Angeles Center
05:23PM 36.2586 -114.5750 69° East 427 491 37,000  Level Los Angeles Center
05:24PM 36.3006 -114.4361 69° East 430 495 37,000  Level Los Angeles Center
05:25PM 36.3506 -114.2686 70° East 432 497 37,000  Level Los Angeles Center
05:26PM 36.3933 -114.1303 69° East 430 495 37,000  Level Los Angeles Center
05:27PM 36.4350 -113.9903 70° East 431 496 37,000  Level Los Angeles Center
05:28PM 36.4772 -113.8506 69° East 433 498 37,000  Level Los Angeles Center
05:29PM 36.5175 -113.7119 70° East 429 494 37,000  Level Los Angeles Center
05:30PM 36.5575 -113.5739 70° East 427 491 37,000  Level Los Angeles Center
05:31PM 36.6058 -113.4083 70° East 426 490 37,000  Level Los Angeles Center
05:32PM 36.6461 -113.2722 70° East 423 487 37,000  Level Los Angeles Center
05:34PM 36.6858 -113.1369 70° East 419 482 37,000  Level Los Angeles Center
05:35PM 36.7239 -113.0003 71° East 420 483 37,000  Level Los Angeles Center
05:36PM 36.7639 -112.8636 70° East 421 484 37,000  Level Los Angeles Center
05:37PM 36.8103 -112.7008 70° East 418 481 37,000  Level Los Angeles Center
05:38PM 36.8494 -112.5633 70° East 421 484 37,000  Level Los Angeles Center
05:39PM 36.8886 -112.4258 70° East 423 487 37,000  Level Los Angeles Center
05:40PM 36.9281 -112.2858 71° East 427 491 37,000  Level Los Angeles Center
05:41PM 36.9669 -112.1456 71° East 429 494 37,000  Level Los Angeles Center
05:41PM 36.9892 -112.0611 72° East 430 495 37,000  Level Denver Center
05:42PM 37.0369 -111.8922 70° East 431 496 37,000  Level Denver Center
05:43PM 37.0744 -111.7550 71° East 423 487 37,000  Level Denver Center
05:44PM 37.1119 -111.6175 71° East 420 483 37,000  Level Denver Center
05:45PM 37.1503 -111.4800 71° East 419 482 37,000  Level Denver Center
05:47PM 37.1883 -111.3397 71° East 426 490 37,000  Level Denver Center
05:48PM 37.2256 -111.1992 72° East 426 490 37,000  Level Denver Center
05:49PM 37.2622 -111.0611 72° East 419 482 37,000  Level Denver Center
05:50PM 37.3075 -110.8931 71° East 424 488 37,000  Level Denver Center
05:51PM 37.3367 -110.7806 72° East 426 490 37,000  Level Denver Center
05:52PM 37.3803 -110.6147 72° East 419 482 37,000  Level Denver Center
05:53PM 37.4175 -110.4756 71° East 420 483 37,000  Level Denver Center
05:54PM 37.4536 -110.3344 72° East 424 488 37,000  Level Denver Center
05:55PM 37.4983 -110.1661 71° East 423 487 37,000  Level Denver Center
05:56PM 37.5325 -110.0314 72° East 422 486 37,000  Level Denver Center
05:57PM 37.5611 -109.9189 72° East 423 487 37,000  Level Denver Center
05:58PM 37.6075 -109.7347 72° East 428 493 37,000  Level Denver Center
05:59PM 37.6419 -109.5989 72° East 427 491 37,000  Level Denver Center
06:00PM 37.6822 -109.4397 72° East 425 489 37,000  Level Denver Center
06:01PM 37.7281 -109.2556 72° East 430 495 37,000  Level Denver Center
06:02PM 37.7619 -109.1192 73° East 426 490 37,000  Level Denver Center
06:03PM 37.7961 -108.9811 73° East 428 493 37,000  Level Denver Center
06:04PM 37.8356 -108.8208 73° East 428 493 37,000  Level Denver Center
06:05PM 37.8714 -108.6844 72° East 427 491 37,000  Level Denver Center
06:06PM 37.9114 -108.5225 73° East 429 494 37,000 600 Level Denver Center
06:07PM 37.9456 -108.3869 72° East 424 488 38,300 960 Climbing Denver Center
06:08PM 37.9844 -108.2294 73° East 421 484 39,000 300 Climbing Denver Center
06:09PM 38.0186 -108.0900 73° East 429 494 39,000  Level Denver Center
06:10PM 38.0581 -107.9283 73° East 431 496 39,000  Level Denver Center
06:11PM 38.0900 -107.7978 73° East 426 490 39,000  Level Denver Center
06:13PM 38.1169 -107.6850 73° East 423 487 39,000  Level Denver Center
06:14PM 38.1619 -107.4989 73° East 430 495 39,000  Level Denver Center
06:15PM 38.2000 -107.3372 73° East 430 495 39,000  Level Denver Center
06:16PM 38.2333 -107.2003 73° East 426 490 39,000  Level Denver Center
06:17PM 38.2706 -107.0419 73° East 430 495 39,000  Level Denver Center
06:18PM 38.3039 -106.8986 73° East 423 487 39,000  Level Denver Center
06:19PM 38.3361 -106.7608 73° East 429 494 39,000  Level Denver Center
06:20PM 38.3650 -106.6375 73° East 429 494 39,000  Level Denver Center
06:21PM 38.4047 -106.4628 74° East 430 495 39,000  Level Denver Center
06:22PM 38.4389 -106.3158 73° East 433 498 39,000  Level Denver Center
06:23PM 38.4747 -106.1564 74° East 434 499 39,000  Level Denver Center
06:24PM 38.5119 -105.9919 74° East 433 498 39,000  Level Denver Center
06:25PM 38.5442 -105.8500 74° East 433 498 39,000  Level Denver Center
06:26PM 38.5792 -105.6856 75° East 434 499 39,000  Level Denver Center
06:27PM 38.6183 -105.5100 74° East 437 503 39,000  Level Denver Center
06:28PM 38.6519 -105.3589 74° East 439 505 39,000  Level Denver Center
06:29PM 38.6850 -105.2086 74° East 437 503 39,000  Level Denver Center
06:30PM 38.7222 -105.0344 75° East 433 498 39,000  Level Denver Center
06:31PM 38.7542 -104.8844 75° East 434 499 39,000  Level Denver Center
06:32PM 38.7867 -104.7356 74° East 433 498 39,000  Level Denver Center
06:33PM 38.8178 -104.5875 75° East 430 495 39,000  Level Denver Center
06:34PM 38.8489 -104.4383 75° East 431 496 39,000  Level Denver Center
06:35PM 38.8803 -104.2894 75° East 429 494 39,000  Level Denver Center
06:36PM 38.9108 -104.1394 75° East 432 497 39,000  Level Denver Center
06:37PM 38.9467 -103.9658 75° East 430 495 39,000  Level Denver Center
06:38PM 38.9781 -103.8156 75° East 433 498 39,000  Level Denver Center
06:40PM 39.0078 -103.6644 76° East 434 499 39,000  Level Denver Center
06:41PM 39.0397 -103.5103 75° East 440 506 39,000  Level Denver Center
06:42PM 39.0686 -103.3592 76° East 435 501 39,000  Level Denver Center
06:43PM 39.0992 -103.2064 76° East 438 504 39,000  Level Denver Center
06:44PM 39.1317 -103.0544 75° East 437 503 39,000  Level Denver Center
06:45PM 39.1597 -102.9028 77° East 432 497 39,000  Level Denver Center
06:46PM 39.1897 -102.7483 76° East 440 506 39,000  Level Denver Center
06:47PM 39.2181 -102.5889 77° East 440 506 39,000  Level Denver Center
06:48PM 39.2519 -102.4181 76° East 441 507 39,000  Level Denver Center
06:49PM 39.2794 -102.2711 76° East 439 505 39,000  Level Denver Center
06:50PM 39.3122 -102.0981 76° East 444 511 39,000  Level Denver Center
06:51PM 39.3403 -101.9531 76° East 443 510 39,000  Level Denver Center
06:52PM 39.3714 -101.7781 77° East 447 514 39,000  Level Denver Center
06:53PM 39.3994 -101.6289 76° East 445 512 39,000  Level Denver Center
06:54PM 39.4286 -101.4556 78° East 444 511 39,000  Level Denver Center
06:55PM 39.4531 -101.3078 78° East 442 509 39,000  Level Denver Center
06:56PM 39.4872 -101.1089 77° East 445 512 39,000  Level Denver Center
06:57PM 39.5211 -100.9058 78° East 454 522 39,000  Level Denver Center
06:58PM 39.5467 -100.7569 77° East 448 516 39,000  Level Denver Center
06:59PM 39.5750 -100.5778 78° East 453 521 39,000  Level Denver Center
07:01PM 39.6006 -100.4269 78° East 452 520 39,000  Level Denver Center
07:02PM 39.6250 -100.2733 78° East 455 524 39,000  Level Denver Center
07:03PM 39.6528 -100.0958 78° East 452 520 39,000  Level Denver Center
07:04PM 39.6839 -99.9019 78° East 452 520 39,000  Level Denver Center
07:05PM 39.7083 -99.7417 79° East 454 522 39,000  Level Denver Center
07:06PM 39.7333 -99.5825 78° East 452 520 39,000  Level Denver Center
07:07PM 39.7583 -99.4219 79° East 455 524 39,000  Level Denver Center
07:08PM 39.7869 -99.2289 79° East 455 524 39,000  Level Denver Center
07:09PM 39.8114 -99.0672 79° East 455 524 39,000  Level Denver Center
07:10PM 39.8397 -98.8736 79° East 457 526 39,000  Level Minneapolis Center
07:11PM 39.8633 -98.7139 79° East 454 522 39,000  Level Minneapolis Center
07:12PM 39.8819 -98.5831 79° East 457 526 39,000  Level Denver Center
07:13PM 39.9067 -98.4233 79° East 455 524 39,000  Level Denver Center
07:14PM 40.0003 -98.2825 49° Northeast 437 503 39,000  Level Minneapolis Center
07:15PM 40.0922 -98.1811 40° Northeast 433 498 39,000  Level Minneapolis Center
07:16PM 40.1847 -98.0817 39° Northeast 432 497 39,000  Level Minneapolis Center
07:17PM 40.2953 -97.9608 40° Northeast 432 497 39,000  Level Minneapolis Center
07:18PM 40.3875 -97.8572 41° Northeast 435 501 39,000  Level Minneapolis Center
07:19PM 40.4786 -97.7594 39° Northeast 430 495 39,000  Level Minneapolis Center
07:20PM 40.5664 -97.6617 40° Northeast 419 482 39,000  Level Minneapolis Center
07:21PM 40.6547 -97.5639 40° Northeast 417 480 39,000  Level Minneapolis Center
07:22PM 40.7431 -97.4664 40° Northeast 416 479 39,000  Level Minneapolis Center
07:24PM 40.8467 -97.3539 39° Northeast 418 481 39,000  Level Minneapolis Center
07:25PM 40.9367 -97.2553 40° Northeast 419 482 39,000  Level Minneapolis Center
07:26PM 41.0286 -97.1572 39° Northeast 422 486 39,000  Level Minneapolis Center
07:27PM 41.1125 -97.0472 45° Northeast 425 489 39,000  Level Minneapolis Center
07:28PM 41.1922 -96.9261 49° Northeast 433 498 39,000  Level Minneapolis Center
07:29PM 41.2292 -96.7797 71° East 440 506 39,000  Level Minneapolis Center
07:30PM 41.2306 -96.5761 89° East 458 527 39,000  Level Minneapolis Center
07:31PM 41.2347 -96.4064 88° East 460 529 39,000  Level Minneapolis Center
07:32PM 41.2383 -96.2292 88° East 459 528 39,000  Level Minneapolis Center
07:33PM 41.2397 -96.0594 89° East 460 529 39,000  Level Minneapolis Center
07:34PM 41.2428 -95.8892 89° East 461 531 39,000  Level Minneapolis Center
07:35PM 41.2453 -95.7192 89° East 461 531 39,000  Level Minneapolis Center
07:36PM 41.2453 -95.5378 90° East 459 528 39,000  Level Minneapolis Center
07:37PM 41.2475 -95.3692 89° East 458 527 39,000  Level Minneapolis Center
07:38PM 41.2497 -95.2003 89° East 459 528 39,000  Level Minneapolis Center
07:39PM 41.2511 -95.0317 89° East 458 527 39,000  Level Minneapolis Center
07:40PM 41.2514 -94.8650 90° East 454 522 39,000  Level Minneapolis Center
07:41PM 41.2522 -94.6944 90° East 459 528 39,000  Level Minneapolis Center
07:42PM 41.2525 -94.4906 90° East 461 531 39,000  Level Minneapolis Center
07:43PM 41.2514 -94.3200 90° East 461 531 39,000  Level Minneapolis Center
07:44PM 41.2517 -94.1419 90° East 463 533 39,000  Level Minneapolis Center
07:45PM 41.2528 -93.9719 89° East 464 534 39,000  Level Minneapolis Center
07:46PM 41.2514 -93.8011 91° East 465 535 39,000  Level Minneapolis Center
07:47PM 41.2511 -93.6311 90° East 464 534 39,000  Level Minneapolis Center
07:48PM 41.2506 -93.4583 90° East 467 537 39,000  Level Minneapolis Center
07:49PM 41.2494 -93.2883 90° East 466 536 39,000  Level Minneapolis Center
07:50PM 41.2481 -93.1175 91° East 464 534 39,000 -540 Level Minneapolis Center
07:51PM 41.2458 -92.9139 91° East 463 533 37,900 -1,020 Descending Minneapolis Center
07:52PM 41.2444 -92.7447 91° East 461 531 37,000 -960 Descending Minneapolis Center
07:53PM 41.2417 -92.5703 91° East 468 539 36,000 -1,020 Descending Minneapolis Center
07:55PM 41.2389 -92.3492 91° East 478 550 34,800 -1,020 Descending Chicago Center
07:56PM 41.2350 -92.1731 92° East 482 555 33,800 -1,020 Descending Chicago Center
07:57PM 41.2314 -92.0056 92° East 476 548 32,800 -1,020 Descending Chicago Center
07:58PM 41.2281 -91.8375 91° East 463 533 31,800 -1,020 Descending Chicago Center
07:59PM 41.2247 -91.6550 91° East 450 518 30,700 -1,020 Descending Chicago Center
08:00PM 41.2208 -91.4831 92° East 461 531 29,800 -960 Descending Chicago Center
08:01PM 41.2167 -91.3133 92° East 462 532 28,800 -1,080 Descending Chicago Center
08:02PM 41.2108 -91.1122 92° East 456 525 27,600 -1,080 Descending Chicago Center
08:03PM 41.2067 -90.9475 92° East 449 517 26,600 -1,020 Descending Chicago Center
08:04PM 41.2019 -90.7856 92° East 443 510 25,600 -1,020 Descending Chicago Center
08:05PM 41.1972 -90.6247 92° East 437 503 24,600 -1,020 Descending Chicago Center
08:06PM 41.1914 -90.4661 93° East 430 495 23,500 -1,320 Descending Chicago Center
08:07PM 41.1867 -90.3097 92° East 424 488 22,000 -1,800 Descending Chicago Center
08:08PM 41.1811 -90.1586 93° East 413 475 19,900 -2,100 Descending Chicago Center
08:09PM 41.1767 -90.0086 92° East 407 468 17,700 -2,340 Descending Chicago Center
08:10PM 41.1706 -89.8344 93° East 396 456 15,100 -1,740 Descending Chicago Center
08:11PM 41.1750 -89.6958 88° East 375 432 14,200 -960 Descending Chicago Center
08:12PM 41.2119 -89.5644 69° East 379 436 13,200 -1,020 Descending Chicago Center
08:13PM 41.2472 -89.4333 70° East 374 430 12,200 -1,020 Descending Chicago Center
08:14PM 41.2819 -89.3061 70° East 366 421 11,200 -1,020 Descending Chicago Center
08:15PM 41.3197 -89.1628 71° East 359 413 10,200 -600 Descending Chicago Center
08:16PM 41.3531 -89.0406 70° East 355 409 10,000 -120 Descending Chicago Center
08:17PM 41.3867 -88.9167 70° East 356 410 10,000 -420 Level Chicago Center
08:18PM 41.4178 -88.8011 70° East 336 387 9,200 -1,140 Descending Chicago Center
08:19PM 41.4472 -88.6906 70° East 320 368 7,700 -1,320 Descending Chicago Center
08:20PM 41.4769 -88.5806 70° East 316 364 6,500 -840 Descending Chicago Center
08:21PM 41.5133 -88.4569 69° East 304 350 6,000 -300 Descending Chicago Center
08:22PM 41.5467 -88.3558 66° East 299 344 6,000 -60 Level Chicago Center
08:23PM 41.5539 -88.2478 85° East 292 336 5,900 -540 Descending Chicago Center
08:24PM 41.5619 -88.1397 84° East 290 334 5,000 -480 Descending Chicago Center
08:25PM 41.5714 -88.0339 83° East 287 330 5,000 -240 Level Chicago Center
08:27PM 41.5800 -87.9281 84° East 285 328 4,600 -780 Descending Chicago Center
08:28PM 41.6136 -87.8353 64° Northeast 288 331 3,500 -900 Descending Chicago Center
08:29PM 41.6717 -87.7503 48° Northeast 267 307 2,800 -540 Descending Chicago Center
08:30PM 41.7308 -87.7097 27° Northeast 250 288 2,500 -360 Descending Chicago Center
08:31PM 41.7836 -87.6833 20° North 222 255 2,100 -540 Descending Chicago Center
08:32PM 41.8183 -87.7072 333° Northwest 182 209 1,500 -540 Descending Chicago Center
08:33PM 41.7922 -87.7483 230° Southwest 162 186 1,000 -540 Descending Chicago Center